Time;durP1;ratioP1;P1;durP2;ratioP2;P2;SDS_P1;SDS_P2;PMS_P1;PMS_P2;Temp;Humidity;BMP_temperature;BMP_pressure;BME280_temperature;BME280_humidity;BME280_pressure;Samples;Min_cycle;Max_cycle;Signal;HPM_P1;HPM_P2
2023/08/07 00:01:38;;;;;;;3.20;1.00;;;;;;;13.80;100.00;98950.86;109040;1276;22528;-83
2023/08/07 00:04:09;;;;;;;4.00;0.90;;;;;;;13.79;100.00;98948.92;109172;1276;22579;-83
2023/08/07 00:06:40;;;;;;;7.00;1.00;;;;;;;13.78;100.00;98947.34;109159;1276;24193;-84
2023/08/07 00:09:10;;;;;;;4.90;1.00;;;;;;;13.79;100.00;98954.59;109051;1272;22839;-84
2023/08/07 00:11:41;;;;;;;8.80;1.10;;;;;;;13.79;100.00;98959.79;109056;1276;22552;-83
2023/08/07 00:14:12;;;;;;;6.30;1.00;;;;;;;13.80;100.00;98961.71;109045;1270;23363;-83
2023/08/07 00:16:44;;;;;;;5.50;1.10;;;;;;;13.81;100.00;98956.90;109089;1276;22563;-83
2023/08/07 00:19:15;;;;;;;5.80;0.90;;;;;;;13.82;100.00;98958.05;109003;1265;23290;-83
2023/08/07 00:21:46;;;;;;;3.70;1.10;;;;;;;13.81;100.00;98957.42;109068;1272;24044;-83
2023/08/07 00:24:16;;;;;;;4.10;0.90;;;;;;;13.79;100.00;98957.08;109109;1276;22520;-83
2023/08/07 00:26:47;;;;;;;10.10;1.40;;;;;;;13.78;100.00;98965.52;109097;1275;22654;-83
2023/08/07 00:29:18;;;;;;;4.40;1.10;;;;;;;13.76;100.00;98959.05;109186;1276;23895;-83
2023/08/07 00:31:49;;;;;;;5.60;1.00;;;;;;;13.76;100.00;98958.55;109095;1276;22524;-84
2023/08/07 00:34:20;;;;;;;4.60;0.90;;;;;;;13.75;100.00;98966.61;109226;1276;22538;-84
2023/08/07 00:36:50;;;;;;;4.60;1.00;;;;;;;13.73;100.00;98963.73;109090;1276;25330;-83
2023/08/07 00:39:21;;;;;;;3.70;0.90;;;;;;;13.71;100.00;98960.52;109181;1276;22641;-83
2023/08/07 00:41:52;;;;;;;5.90;1.20;;;;;;;13.68;100.00;98962.19;109216;1276;22474;-83
2023/08/07 00:44:24;;;;;;;6.10;1.00;;;;;;;13.66;100.00;98958.39;109094;1276;22511;-83
2023/08/07 00:46:55;;;;;;;8.30;0.90;;;;;;;13.64;100.00;98952.86;109188;1276;22579;-83
2023/08/07 00:49:26;;;;;;;4.90;1.20;;;;;;;13.62;100.00;98953.95;109062;1276;23298;-84
2023/08/07 00:51:57;;;;;;;4.00;1.00;;;;;;;13.62;100.00;98955.75;109114;1273;23002;-83
2023/08/07 00:54:28;;;;;;;3.40;0.80;;;;;;;13.61;100.00;98947.54;109100;1273;24232;-83
2023/08/07 00:57:05;;;;;;;4.10;1.00;;;;;;;13.61;100.00;98945.92;109132;1276;22693;-83
2023/08/07 00:59:36;;;;;;;9.80;1.00;;;;;;;13.60;100.00;98943.64;109243;1276;22558;-83
2023/08/07 01:02:08;;;;;;;4.50;0.90;;;;;;;13.60;100.00;98942.15;109160;1272;22514;-83
2023/08/07 01:04:39;;;;;;;3.50;0.90;;;;;;;13.59;100.00;98937.63;109258;1276;22617;-83
2023/08/07 01:07:10;;;;;;;2.70;0.60;;;;;;;13.58;100.00;98939.07;109308;1276;24251;-84
2023/08/07 01:09:41;;;;;;;5.40;1.00;;;;;;;13.58;100.00;98939.33;109151;1276;25361;-83
2023/08/07 01:12:16;;;;;;;4.60;0.80;;;;;;;13.58;100.00;98941.23;109071;1276;22473;-83
2023/08/07 01:14:56;;;;;;;5.00;0.90;;;;;;;13.57;100.00;98938.02;108898;1276;24176;-83
2023/08/07 01:17:29;;;;;;;4.80;1.10;;;;;;;13.57;100.00;98936.94;109019;1276;22569;-83
2023/08/07 01:20:00;;;;;;;3.90;0.90;;;;;;;13.57;100.00;98931.89;108976;1270;22529;-83
2023/08/07 01:22:31;;;;;;;6.70;1.00;;;;;;;13.58;100.00;98933.11;108993;1276;22558;-83
2023/08/07 01:25:02;;;;;;;3.30;0.90;;;;;;;13.59;100.00;98931.67;109000;1273;22574;-83
2023/08/07 01:27:42;;;;;;;3.70;0.80;;;;;;;13.59;100.00;98938.25;109046;1266;22475;-83
2023/08/07 01:30:23;;;;;;;4.50;0.90;;;;;;;13.58;100.00;98935.50;109086;1265;22685;-83
2023/08/07 01:33:06;;;;;;;5.90;1.00;;;;;;;13.58;100.00;98933.31;109142;1276;25259;-83
2023/08/07 01:35:43;;;;;;;7.00;0.90;;;;;;;13.58;100.00;98933.22;109148;1270;22581;-83
2023/08/07 01:38:16;;;;;;;7.00;1.00;;;;;;;13.57;100.00;98931.52;109160;1276;25269;-83
2023/08/07 01:40:49;;;;;;;5.50;1.10;;;;;;;13.59;100.00;98929.98;109066;1262;23261;-83
2023/08/07 01:43:20;;;;;;;6.70;1.10;;;;;;;13.59;100.00;98923.41;109031;1276;22549;-83
2023/08/07 01:45:51;;;;;;;4.30;0.90;;;;;;;13.57;100.00;98926.70;109168;1267;22513;-83
2023/08/07 01:48:22;;;;;;;7.50;1.00;;;;;;;13.55;100.00;98930.95;109101;1276;24026;-83
2023/08/07 01:50:53;;;;;;;10.10;1.90;;;;;;;13.54;100.00;98933.94;109111;1276;22593;-83
2023/08/07 01:53:24;;;;;;;7.30;1.10;;;;;;;13.52;100.00;98940.17;109056;1276;22474;-83
2023/08/07 01:55:55;;;;;;;6.80;1.40;;;;;;;13.51;100.00;98943.45;109002;1276;22521;-83
2023/08/07 01:58:26;;;;;;;3.80;1.00;;;;;;;13.52;100.00;98945.29;109147;1273;22593;-83
2023/08/07 02:00:56;;;;;;;8.70;1.20;;;;;;;13.52;100.00;98940.45;109081;1276;25655;-83
2023/08/07 02:03:27;;;;;;;3.30;1.00;;;;;;;13.54;100.00;98943.36;109037;1277;22556;-83
2023/08/07 02:05:58;;;;;;;5.10;1.30;;;;;;;13.56;100.00;98944.10;109141;1277;22498;-83
2023/08/07 02:08:29;;;;;;;6.10;1.20;;;;;;;13.56;100.00;98943.17;109134;1277;23014;-83
2023/08/07 02:11:01;;;;;;;6.60;1.00;;;;;;;13.56;100.00;98940.63;108981;1276;22739;-83
2023/08/07 02:13:32;;;;;;;3.80;0.80;;;;;;;13.56;100.00;98942.42;109133;1276;22915;-83
2023/08/07 02:16:03;;;;;;;4.20;0.90;;;;;;;13.55;100.00;98936.87;109060;1277;22744;-82
2023/08/07 02:18:33;;;;;;;3.60;0.90;;;;;;;13.54;100.00;98930.31;108898;1269;23502;-83
2023/08/07 02:21:04;;;;;;;5.20;1.00;;;;;;;13.53;100.00;98934.55;108945;1276;23720;-82
2023/08/07 02:23:35;;;;;;;6.40;1.20;;;;;;;13.52;100.00;98927.74;109005;1269;22528;-83
2023/08/07 02:26:05;;;;;;;5.20;1.00;;;;;;;13.52;100.00;98929.27;109049;1276;22602;-83
2023/08/07 02:28:36;;;;;;;3.00;0.90;;;;;;;13.52;100.00;98933.55;109109;1276;23549;-82
2023/08/07 02:31:07;;;;;;;6.20;0.90;;;;;;;13.51;100.00;98939.06;108977;1276;22559;-83
2023/08/07 02:33:38;;;;;;;4.50;1.10;;;;;;;13.52;100.00;98941.09;104936;1276;5394703;-83
2023/08/07 02:36:09;;;;;;;10.10;1.30;;;;;;;13.52;100.00;98944.05;109101;1277;22568;-83
2023/08/07 02:38:40;;;;;;;7.90;1.30;;;;;;;13.51;100.00;98940.64;109088;1276;24902;-83
2023/08/07 02:41:11;;;;;;;3.70;1.20;;;;;;;13.52;100.00;98944.88;109044;1269;22616;-83
2023/08/07 02:43:41;;;;;;;3.50;0.90;;;;;;;13.52;100.00;98943.90;109073;1272;22553;-83
2023/08/07 02:46:12;;;;;;;5.20;1.10;;;;;;;13.51;100.00;98942.90;109039;1267;23145;-83
2023/08/07 02:48:44;;;;;;;5.50;1.20;;;;;;;13.53;100.00;98947.11;109066;1253;25560;-83
2023/08/07 02:51:14;;;;;;;5.00;1.40;;;;;;;13.53;100.00;98944.86;109075;1272;22504;-83
2023/08/07 02:53:45;;;;;;;7.30;1.20;;;;;;;13.53;100.00;98942.50;109081;1277;23594;-83
2023/08/07 02:56:16;;;;;;;8.10;1.20;;;;;;;13.52;100.00;98941.86;109006;1276;22544;-83
2023/08/07 02:58:47;;;;;;;4.20;1.10;;;;;;;13.53;100.00;98944.86;109007;1277;23799;-83
2023/08/07 03:01:20;;;;;;;6.30;1.00;;;;;;;13.54;100.00;98945.61;109064;1277;22527;-83
2023/08/07 03:03:51;;;;;;;7.40;1.10;;;;;;;13.54;100.00;98947.55;109030;1277;22620;-83
2023/08/07 03:06:22;;;;;;;7.20;1.20;;;;;;;13.54;100.00;98942.96;109105;1276;23766;-83
2023/08/07 03:08:53;;;;;;;5.60;1.00;;;;;;;13.56;100.00;98948.59;109292;1277;23612;-83
2023/08/07 03:11:25;;;;;;;4.40;1.20;;;;;;;13.56;100.00;98952.71;109583;1277;25392;-84
2023/08/07 03:13:56;;;;;;;9.20;1.20;;;;;;;13.58;100.00;98956.26;109476;1277;22538;-84
2023/08/07 03:16:27;;;;;;;7.50;1.10;;;;;;;13.58;100.00;98959.98;109428;1276;22615;-84
2023/08/07 03:18:58;;;;;;;7.10;1.00;;;;;;;13.60;100.00;98961.27;109345;1277;25482;-84
2023/08/07 03:21:28;;;;;;;4.50;1.10;;;;;;;13.62;100.00;98962.77;109262;1269;23665;-84
2023/08/07 03:23:59;;;;;;;5.00;1.10;;;;;;;13.63;100.00;98965.27;109216;1272;22538;-84
2023/08/07 03:26:30;;;;;;;6.90;1.00;;;;;;;13.65;100.00;98966.11;109315;1277;22539;-84
2023/08/07 03:29:01;;;;;;;3.60;1.00;;;;;;;13.65;100.00;98967.59;109421;1277;22810;-84
2023/08/07 03:31:32;;;;;;;5.30;1.50;;;;;;;13.66;100.00;98966.70;109569;1277;22914;-84
2023/08/07 03:34:02;;;;;;;3.50;1.10;;;;;;;13.69;100.00;98969.67;109508;1276;22548;-84
2023/08/07 03:36:33;;;;;;;7.50;1.30;;;;;;;13.71;100.00;98968.38;109471;1265;22558;-84
2023/08/07 03:39:04;;;;;;;7.00;1.50;;;;;;;13.73;100.00;98971.15;109431;1276;22852;-84
2023/08/07 03:41:35;;;;;;;4.50;1.00;;;;;;;13.75;100.00;98976.72;109506;1276;22540;-84
2023/08/07 03:44:06;;;;;;;6.80;1.30;;;;;;;13.77;100.00;98975.48;109427;1275;24034;-84
2023/08/07 03:46:39;;;;;;;4.90;1.10;;;;;;;13.78;100.00;98977.75;109366;1269;22572;-84
2023/08/07 03:49:10;;;;;;;5.30;1.00;;;;;;;13.79;100.00;98980.19;109410;1276;22518;-84
2023/08/07 03:51:40;;;;;;;5.80;1.20;;;;;;;13.78;100.00;98987.79;109299;1265;23038;-84
2023/08/07 03:54:11;;;;;;;5.70;1.30;;;;;;;13.77;100.00;98989.45;109444;1277;22523;-84
2023/08/07 03:56:42;;;;;;;5.60;1.20;;;;;;;13.78;100.00;98995.81;109195;1277;22509;-84
2023/08/07 03:59:12;;;;;;;5.50;1.40;;;;;;;13.79;100.00;98995.08;109386;1277;25889;-84
2023/08/07 04:01:43;;;;;;;4.50;1.30;;;;;;;13.80;100.00;98993.83;109311;1277;22496;-84
2023/08/07 04:04:14;;;;;;;6.70;1.50;;;;;;;13.82;100.00;98993.92;109317;1277;22757;-84
2023/08/07 04:06:45;;;;;;;6.30;1.20;;;;;;;13.84;100.00;98996.15;109299;1277;24555;-84
2023/08/07 04:09:16;;;;;;;4.40;1.20;;;;;;;13.86;100.00;98996.37;109280;1277;22537;-83
2023/08/07 04:11:47;;;;;;;5.70;1.20;;;;;;;13.87;100.00;98998.63;109253;1276;24194;-82
2023/08/07 04:14:18;;;;;;;5.60;1.20;;;;;;;13.89;100.00;99002.23;109233;1276;25233;-82
2023/08/07 04:16:49;;;;;;;4.00;1.20;;;;;;;13.91;100.00;99006.89;108905;1277;25424;-82
2023/08/07 04:19:20;;;;;;;7.20;1.40;;;;;;;13.92;100.00;99007.35;108736;1263;24317;-81
2023/08/07 04:21:51;;;;;;;10.80;1.40;;;;;;;13.93;100.00;99008.04;108725;1276;23862;-80
2023/08/07 04:24:21;;;;;;;3.80;1.20;;;;;;;13.94;100.00;99006.81;108769;1272;24301;-81
2023/08/07 04:26:53;;;;;;;6.80;1.20;;;;;;;13.95;100.00;99010.52;108603;1277;22484;-80
2023/08/07 04:29:25;;;;;;;7.00;1.30;;;;;;;13.98;100.00;99011.04;108597;1276;25458;-81
2023/08/07 04:31:55;;;;;;;4.50;1.20;;;;;;;14.00;100.00;99012.23;108513;1276;22534;-81
2023/08/07 04:34:26;;;;;;;10.00;1.30;;;;;;;14.00;100.00;99013.82;108562;1277;22538;-83
2023/08/07 04:36:57;;;;;;;4.70;1.10;;;;;;;14.01;100.00;99012.98;108566;1274;23104;-82
2023/08/07 04:39:28;;;;;;;7.30;1.40;;;;;;;14.03;100.00;99018.06;108527;1276;25473;-82
2023/08/07 04:41:59;;;;;;;5.30;1.30;;;;;;;14.03;100.00;99013.39;108602;1277;23306;-82
2023/08/07 04:44:29;;;;;;;4.20;1.20;;;;;;;14.04;100.00;99016.56;108919;1277;22557;-83
2023/08/07 04:47:00;;;;;;;6.10;1.50;;;;;;;14.05;100.00;99020.23;108954;1269;22550;-83
2023/08/07 04:49:31;;;;;;;5.50;1.40;;;;;;;14.05;100.00;99022.07;108745;1276;22514;-82
2023/08/07 04:52:02;;;;;;;5.60;1.60;;;;;;;14.05;100.00;99022.81;108679;1269;22541;-80
2023/08/07 04:54:32;;;;;;;6.90;1.70;;;;;;;14.05;100.00;99018.23;108695;1269;22948;-80
2023/08/07 04:57:04;;;;;;;4.60;1.40;;;;;;;14.04;100.00;99014.63;108761;1265;24264;-81
2023/08/07 04:59:35;;;;;;;6.30;1.60;;;;;;;14.03;100.00;99013.80;108687;1276;22523;-79
2023/08/07 05:02:08;;;;;;;9.20;2.10;;;;;;;14.04;100.00;99014.48;107959;1276;22476;-79
2023/08/07 05:04:39;;;;;;;9.60;2.10;;;;;;;14.05;100.00;99014.36;108022;1269;25240;-79
2023/08/07 05:07:09;;;;;;;8.30;1.80;;;;;;;14.03;100.00;99016.54;108021;1276;23493;-80
2023/08/07 05:09:40;;;;;;;7.60;2.00;;;;;;;14.03;100.00;99015.71;108014;1276;22552;-79
2023/08/07 05:12:11;;;;;;;5.70;1.50;;;;;;;14.02;100.00;99016.44;108051;1276;23021;-80
2023/08/07 05:14:42;;;;;;;8.80;1.80;;;;;;;14.02;100.00;99020.92;108060;1276;22986;-80
2023/08/07 05:17:13;;;;;;;5.60;1.50;;;;;;;14.01;100.00;99019.37;108090;1275;22865;-81
2023/08/07 05:19:44;;;;;;;7.20;1.30;;;;;;;14.01;100.00;99029.10;108605;1273;22538;-80
2023/08/07 05:22:16;;;;;;;5.50;1.40;;;;;;;14.01;100.00;99027.73;108606;1276;25416;-80
2023/08/07 05:24:48;;;;;;;5.40;1.50;;;;;;;14.02;100.00;99028.23;108551;1276;22566;-82
2023/08/07 05:27:19;;;;;;;5.20;1.30;;;;;;;14.04;100.00;99034.21;108708;1276;25406;-81
2023/08/07 05:29:50;;;;;;;4.90;1.00;;;;;;;14.06;100.00;99034.85;108983;1276;22465;-85
2023/08/07 05:32:21;;;;;;;4.60;1.20;;;;;;;14.08;100.00;99038.90;108940;1276;22567;-85
2023/08/07 05:34:51;;;;;;;6.20;1.20;;;;;;;14.11;100.00;99041.09;108995;1276;22531;-85
2023/08/07 05:37:22;;;;;;;3.70;1.00;;;;;;;14.14;100.00;99043.05;108887;1276;22640;-85
2023/08/07 05:39:53;;;;;;;5.10;1.40;;;;;;;14.17;100.00;99045.05;108961;1269;25459;-85
2023/08/07 05:42:24;;;;;;;7.80;1.70;;;;;;;14.19;100.00;99043.94;108991;1276;22531;-85
2023/08/07 05:44:55;;;;;;;7.40;1.30;;;;;;;14.21;100.00;99045.39;108996;1276;25527;-86
2023/08/07 05:47:25;;;;;;;4.70;0.90;;;;;;;14.22;100.00;99048.03;109039;1276;22499;-86
2023/08/07 05:49:57;;;;;;;8.40;1.00;;;;;;;14.23;100.00;99046.34;109114;1276;22629;-86
2023/08/07 05:52:28;;;;;;;5.80;1.30;;;;;;;14.24;100.00;99048.98;109144;1275;24189;-86
2023/08/07 05:54:59;;;;;;;6.10;1.10;;;;;;;14.25;100.00;99046.56;109224;1276;22494;-86
2023/08/07 05:57:30;;;;;;;3.90;1.00;;;;;;;14.24;100.00;99051.27;109328;1276;22641;-86
2023/08/07 06:00:01;;;;;;;6.20;1.10;;;;;;;14.26;100.00;99057.02;109332;1276;22537;-86
2023/08/07 06:02:32;;;;;;;7.30;1.40;;;;;;;14.27;100.00;99060.42;109395;1276;22541;-86
2023/08/07 06:05:02;;;;;;;7.80;1.20;;;;;;;14.30;100.00;99061.05;109350;1276;22734;-86
2023/08/07 06:07:33;;;;;;;10.60;1.40;;;;;;;14.34;100.00;99062.44;109400;1276;23756;-86
2023/08/07 06:10:05;;;;;;;5.40;1.30;;;;;;;14.36;100.00;99063.88;109423;1276;22546;-87
2023/08/07 06:12:35;;;;;;;9.10;1.40;;;;;;;14.40;100.00;99070.20;109396;1276;22452;-88
2023/08/07 06:15:08;;;;;;;5.80;1.20;;;;;;;14.43;100.00;99071.89;109379;1276;23026;-86
2023/08/07 06:17:40;;;;;;;6.10;1.30;;;;;;;14.44;100.00;99074.57;109312;1276;22667;-86
2023/08/07 06:20:14;;;;;;;5.20;1.10;;;;;;;14.46;100.00;99078.64;109326;1276;24039;-86
2023/08/07 06:22:44;;;;;;;5.40;1.20;;;;;;;14.45;100.00;99080.73;109363;1276;22534;-86
2023/08/07 06:25:16;;;;;;;4.50;1.40;;;;;;;14.47;100.00;99088.62;109282;1276;25522;-86
2023/08/07 06:27:47;;;;;;;3.20;1.00;;;;;;;14.47;100.00;99091.84;109471;1276;25416;-87
2023/08/07 06:30:17;;;;;;;3.80;1.20;;;;;;;14.46;100.00;99098.75;109449;1276;24166;-86
2023/08/07 06:32:49;;;;;;;4.80;1.10;;;;;;;14.46;100.00;99098.35;109435;1276;22556;-86
2023/08/07 06:35:20;;;;;;;3.90;1.00;;;;;;;14.46;100.00;99099.98;109472;1276;22608;-86
2023/08/07 06:37:51;;;;;;;5.50;1.30;;;;;;;14.45;100.00;99102.13;109321;1272;22530;-85
2023/08/07 06:40:21;;;;;;;5.70;1.20;;;;;;;14.44;100.00;99107.70;109375;1253;23345;-86
2023/08/07 06:42:54;;;;;;;4.40;1.10;;;;;;;14.45;100.00;99120.82;109322;1266;23882;-86
2023/08/07 06:45:26;;;;;;;5.50;1.10;;;;;;;14.45;100.00;99122.70;108518;1275;22520;-81
2023/08/07 06:47:57;;;;;;;5.40;1.20;;;;;;;14.45;100.00;99120.16;108489;1274;25342;-80
2023/08/07 06:50:28;;;;;;;7.50;1.40;;;;;;;14.45;100.00;99123.06;108426;1269;23208;-82
2023/08/07 06:53:00;;;;;;;5.60;1.10;;;;;;;14.46;100.00;99122.35;108457;1269;22954;-84
2023/08/07 06:55:31;;;;;;;4.60;1.10;;;;;;;14.48;100.00;99122.41;108572;1273;22481;-84
2023/08/07 06:58:01;;;;;;;4.70;1.10;;;;;;;14.48;100.00;99120.47;108678;1276;22553;-85
2023/08/07 07:00:33;;;;;;;6.50;0.70;;;;;;;14.47;100.00;99125.75;108856;1276;22567;-85
2023/08/07 07:03:05;;;;;;;5.60;1.00;;;;;;;14.48;100.00;99128.79;108853;1274;22535;-85
2023/08/07 07:05:37;;;;;;;5.20;1.20;;;;;;;14.51;100.00;99127.67;109049;1274;22750;-86
2023/08/07 07:08:08;;;;;;;3.40;0.90;;;;;;;14.53;100.00;99129.18;109200;1275;23265;-86
2023/08/07 07:10:40;;;;;;;5.10;1.20;;;;;;;14.55;100.00;99129.61;108787;1270;25422;-81
2023/08/07 07:13:11;;;;;;;6.60;1.20;;;;;;;14.59;100.00;99132.67;108982;1270;23011;-81
2023/08/07 07:15:42;;;;;;;2.50;0.80;;;;;;;14.63;100.00;99139.40;109483;1275;22500;-81
2023/08/07 07:18:13;;;;;;;4.10;0.80;;;;;;;14.67;100.00;99140.20;109497;1270;22645;-81
2023/08/07 07:20:44;;;;;;;5.20;1.30;;;;;;;14.71;100.00;99141.27;108452;1277;22563;-82
2023/08/07 07:23:14;;;;;;;5.80;1.10;;;;;;;14.74;100.00;99144.75;108516;1277;23160;-81
2023/08/07 07:25:45;;;;;;;3.20;0.90;;;;;;;14.78;100.00;99142.45;108554;1277;22990;-80
2023/08/07 07:28:16;;;;;;;3.70;1.00;;;;;;;14.83;100.00;99139.81;108034;1277;22530;-81
2023/08/07 07:30:47;;;;;;;3.40;0.90;;;;;;;14.87;100.00;99145.61;108526;1277;24943;-82
2023/08/07 07:33:17;;;;;;;3.90;0.90;;;;;;;14.91;100.00;99145.20;108714;1269;24064;-82
2023/08/07 07:35:48;;;;;;;4.80;1.00;;;;;;;14.95;100.00;99143.61;108512;1275;22534;-81
2023/08/07 07:38:20;;;;;;;4.50;0.80;;;;;;;14.99;100.00;99143.63;108566;1277;23205;-82
2023/08/07 07:40:51;;;;;;;4.10;0.80;;;;;;;15.04;100.00;99145.69;108545;1276;22555;-81
2023/08/07 07:43:22;;;;;;;3.00;0.60;;;;;;;15.10;100.00;99149.95;108692;1277;22561;-81
2023/08/07 07:45:53;;;;;;;4.10;0.90;;;;;;;15.16;100.00;99150.20;108652;1276;22494;-79
2023/08/07 07:48:23;;;;;;;2.70;0.90;;;;;;;15.22;100.00;99149.64;108581;1269;24276;-79
2023/08/07 07:51:00;;;;;;;5.10;0.80;;;;;;;15.30;100.00;99150.38;108583;1270;22548;-80
2023/08/07 07:53:31;;;;;;;8.10;1.10;;;;;;;15.38;100.00;99153.91;108426;1276;22493;-80
2023/08/07 07:56:02;;;;;;;4.60;0.80;;;;;;;15.44;100.00;99153.11;108488;1276;23609;-80
2023/08/07 07:58:33;;;;;;;5.30;0.90;;;;;;;15.50;100.00;99156.38;108332;1276;26000;-80
2023/08/07 08:01:06;;;;;;;4.00;0.90;;;;;;;15.59;100.00;99158.51;108555;1276;22522;-80
2023/08/07 08:03:37;;;;;;;6.20;1.00;;;;;;;15.67;100.00;99160.32;108591;1276;22468;-79
2023/08/07 08:06:08;;;;;;;5.80;1.00;;;;;;;15.74;100.00;99159.71;108588;1269;24820;-79
2023/08/07 08:08:40;;;;;;;3.80;0.70;;;;;;;15.81;100.00;99162.19;108551;1277;22580;-80
2023/08/07 08:11:10;;;;;;;4.40;0.80;;;;;;;15.86;100.00;99163.23;108705;1275;22564;-80
2023/08/07 08:13:41;;;;;;;4.20;0.90;;;;;;;15.95;100.00;99161.60;108556;1275;22936;-80
2023/08/07 08:16:12;;;;;;;5.90;1.10;;;;;;;16.04;100.00;99161.22;108539;1275;22544;-79
2023/08/07 08:18:43;;;;;;;6.20;1.00;;;;;;;16.13;100.00;99165.96;108624;1276;25590;-80
2023/08/07 08:21:14;;;;;;;4.60;1.10;;;;;;;16.19;100.00;99169.83;108603;1277;22574;-80
2023/08/07 08:23:45;;;;;;;4.50;1.00;;;;;;;16.23;100.00;99171.80;107998;1270;22524;-79
2023/08/07 08:26:16;;;;;;;5.50;1.00;;;;;;;16.28;100.00;99173.29;108003;1276;23301;-79
2023/08/07 08:28:46;;;;;;;3.50;0.90;;;;;;;16.35;100.00;99176.14;108666;1268;22554;-79
2023/08/07 08:31:17;;;;;;;4.40;1.10;;;;;;;16.41;100.00;99182.31;108560;1276;23506;-79
2023/08/07 08:33:48;;;;;;;5.00;0.90;;;;;;;16.46;100.00;99187.44;108685;1266;22529;-79
2023/08/07 08:36:19;;;;;;;4.00;1.00;;;;;;;16.52;100.00;99187.42;108627;1276;22515;-80
2023/08/07 08:38:51;;;;;;;5.10;1.00;;;;;;;16.56;100.00;99186.73;108554;1276;23160;-80
2023/08/07 08:41:22;;;;;;;5.10;1.00;;;;;;;16.61;100.00;99186.52;108623;1274;22629;-80
2023/08/07 08:43:55;;;;;;;4.90;0.90;;;;;;;16.70;100.00;99182.27;108577;1275;25195;-80
2023/08/07 08:46:29;;;;;;;2.60;0.80;;;;;;;16.76;100.00;99182.69;108593;1270;24305;-80
2023/08/07 08:49:03;;;;;;;7.10;1.30;;;;;;;16.80;100.00;99184.04;108644;1276;22563;-80
2023/08/07 08:51:34;;;;;;;5.40;0.90;;;;;;;16.78;100.00;99187.14;108634;1269;25419;-79
2023/08/07 08:54:07;;;;;;;7.20;1.20;;;;;;;16.74;100.00;99188.52;108749;1276;22526;-80
2023/08/07 08:56:39;;;;;;;8.90;1.00;;;;;;;16.69;100.00;99189.55;108697;1270;23686;-80
2023/08/07 08:59:10;;;;;;;6.00;1.00;;;;;;;16.67;99.96;99196.17;108575;1276;22597;-80
2023/08/07 09:01:41;;;;;;;6.40;1.20;;;;;;;16.69;100.00;99194.23;108537;1276;23417;-80
2023/08/07 09:04:14;;;;;;;7.00;1.20;;;;;;;16.76;100.00;99198.46;108513;1272;22530;-80
2023/08/07 09:06:45;;;;;;;6.10;1.30;;;;;;;16.82;99.56;99201.56;108525;1254;22536;-80
2023/08/07 09:09:19;;;;;;;6.70;1.30;;;;;;;16.84;99.26;99202.76;108455;1276;22570;-80
2023/08/07 09:11:54;;;;;;;6.30;1.30;;;;;;;16.85;99.12;99204.58;108383;1276;22547;-82
2023/08/07 09:14:31;;;;;;;4.40;1.10;;;;;;;16.88;98.63;99208.34;108394;1276;22595;-81
2023/08/07 09:17:04;;;;;;;5.40;1.10;;;;;;;16.88;97.52;99216.02;108402;1272;25409;-81
2023/08/07 09:19:35;;;;;;;5.50;1.20;;;;;;;16.85;96.15;99215.18;108405;1276;22473;-81
2023/08/07 09:22:08;;;;;;;4.90;1.40;;;;;;;16.81;95.13;99214.77;108382;1276;22521;-81
2023/08/07 09:24:39;;;;;;;4.20;1.20;;;;;;;16.78;95.79;99216.30;108509;1276;22531;-81
2023/08/07 09:27:11;;;;;;;9.80;1.50;;;;;;;16.82;96.25;99216.54;108542;1276;22529;-81
2023/08/07 09:29:45;;;;;;;4.50;1.20;;;;;;;16.89;95.68;99218.41;108580;1269;23037;-81
2023/08/07 09:32:18;;;;;;;4.90;1.10;;;;;;;17.00;95.94;99217.13;108509;1276;22564;-81
2023/08/07 09:34:52;;;;;;;8.50;1.50;;;;;;;17.13;96.63;99221.93;108606;1276;23070;-81
2023/08/07 09:37:25;;;;;;;6.90;1.20;;;;;;;17.24;95.76;99221.85;108500;1276;22521;-81
2023/08/07 09:39:55;;;;;;;5.70;1.30;;;;;;;17.30;94.01;99224.13;108561;1276;25426;-81
2023/08/07 09:42:26;;;;;;;4.60;1.10;;;;;;;17.31;93.38;99223.02;108519;1276;22502;-81
2023/08/07 09:44:57;;;;;;;6.30;1.40;;;;;;;17.28;92.86;99226.52;108502;1274;25310;-81
2023/08/07 09:47:28;;;;;;;8.10;1.50;;;;;;;17.24;93.55;99225.85;108434;1274;23566;-81
2023/08/07 09:49:59;;;;;;;7.30;1.10;;;;;;;17.21;93.24;99227.05;108500;1274;22546;-81
2023/08/07 09:52:31;;;;;;;5.40;1.10;;;;;;;17.24;92.94;99226.48;108547;1270;22571;-81
2023/08/07 09:55:03;;;;;;;4.80;1.20;;;;;;;17.33;92.46;99224.91;108500;1276;22530;-81
2023/08/07 09:57:34;;;;;;;5.00;1.40;;;;;;;17.46;92.17;99222.19;108539;1276;22518;-80
2023/08/07 10:00:11;;;;;;;5.80;1.10;;;;;;;17.60;90.72;99225.55;108632;1270;25301;-81
2023/08/07 10:02:43;;;;;;;7.20;1.40;;;;;;;17.72;90.83;99226.52;108544;1276;22650;-80
2023/08/07 10:05:15;;;;;;;5.80;1.00;;;;;;;17.82;87.95;99235.41;108618;1276;23043;-81
2023/08/07 10:07:46;;;;;;;3.50;1.00;;;;;;;17.82;87.07;99237.86;108501;1276;22518;-81
2023/08/07 10:10:19;;;;;;;6.10;1.00;;;;;;;17.78;86.55;99243.85;108473;1276;22540;-81
2023/08/07 10:12:51;;;;;;;4.20;0.90;;;;;;;17.79;85.23;99249.59;108444;1276;22513;-81
2023/08/07 10:15:24;;;;;;;3.20;0.70;;;;;;;17.86;85.79;99240.63;108383;1276;22799;-81
2023/08/07 10:17:55;;;;;;;5.30;0.80;;;;;;;17.96;85.53;99245.34;108531;1276;22629;-80
2023/08/07 10:20:29;;;;;;;4.30;0.80;;;;;;;18.07;82.81;99245.27;108378;1276;22555;-79
2023/08/07 10:23:05;;;;;;;3.00;0.80;;;;;;;18.14;80.60;99250.63;108000;1276;22851;-79
2023/08/07 10:25:38;;;;;;;5.20;0.80;;;;;;;18.18;80.96;99249.63;108028;1271;24685;-78
2023/08/07 10:28:13;;;;;;;3.80;0.90;;;;;;;18.23;81.42;99247.29;108070;1274;22602;-79
2023/08/07 10:30:45;;;;;;;2.80;0.60;;;;;;;18.24;80.15;99254.04;108107;1270;25262;-79
2023/08/07 10:33:19;;;;;;;2.20;0.70;;;;;;;18.25;80.53;99251.37;108143;1270;25424;-78
2023/08/07 10:35:53;;;;;;;5.10;0.70;;;;;;;18.30;80.13;99255.92;108047;1274;25235;-79
2023/08/07 10:38:25;;;;;;;5.10;0.80;;;;;;;18.36;78.58;99254.45;107961;1270;25409;-78
2023/08/07 10:41:06;;;;;;;3.50;0.70;;;;;;;18.41;77.91;99250.04;107919;1276;22514;-79
2023/08/07 10:43:41;;;;;;;6.10;0.70;;;;;;;18.43;78.67;99252.48;107993;1276;22802;-78
2023/08/07 10:46:14;;;;;;;4.80;1.10;;;;;;;18.48;78.29;99251.95;107894;1270;22568;-80
2023/08/07 10:48:46;;;;;;;5.10;0.60;;;;;;;18.53;78.98;99250.80;110291;1276;22235;-79
2023/08/07 10:51:18;;;;;;;2.90;0.90;;;;;;;18.62;78.77;99248.91;110338;1276;22491;-79
2023/08/07 10:53:51;;;;;;;2.80;0.60;;;;;;;18.70;77.45;99251.71;110294;1276;22304;-79
2023/08/07 10:56:52;;;;;;;3.40;0.50;;;;;;;18.76;75.12;99254.30;110325;1273;23055;-79
2023/08/07 10:59:23;;;;;;;3.50;0.70;;;;;;;18.81;75.29;99246.96;110394;1270;22332;-79
2023/08/07 11:01:56;;;;;;;3.80;0.60;;;;;;;18.81;74.22;99247.73;110444;1277;22170;-79
2023/08/07 11:04:27;;;;;;;2.70;0.60;;;;;;;18.81;72.90;99248.17;110355;1276;22163;-79
2023/08/07 11:06:58;;;;;;;3.20;0.60;;;;;;;18.84;74.02;99243.36;110317;1270;22664;-79
2023/08/07 11:09:29;;;;;;;4.40;0.50;;;;;;;18.89;72.78;99248.08;110298;1276;22749;-80
2023/08/07 11:12:00;;;;;;;3.50;0.90;;;;;;;18.98;72.86;99245.67;110305;1276;22223;-79
2023/08/07 11:14:30;;;;;;;3.00;0.70;;;;;;;19.07;70.97;99238.86;110296;1276;22158;-79
2023/08/07 11:17:02;;;;;;;3.20;0.70;;;;;;;19.19;70.31;99244.97;110318;1271;22226;-79
2023/08/07 11:19:33;;;;;;;1.40;0.40;;;;;;;19.28;70.30;99238.39;110309;1276;22581;-79
2023/08/07 11:22:04;;;;;;;3.40;0.80;;;;;;;19.37;71.34;99236.13;110322;1273;22338;-79
2023/08/07 11:24:36;;;;;;;5.60;0.60;;;;;;;19.41;70.15;99236.39;110337;1270;23333;-79
2023/08/07 11:27:08;;;;;;;3.40;0.70;;;;;;;19.40;70.28;99240.23;110330;1276;23346;-79
2023/08/07 11:29:39;;;;;;;3.10;0.60;;;;;;;19.37;70.60;99243.84;110320;1270;22369;-79
2023/08/07 11:32:10;;;;;;;2.80;0.70;;;;;;;19.33;71.11;99245.02;110293;1276;23095;-79
2023/08/07 11:34:41;;;;;;;4.60;0.70;;;;;;;19.30;70.64;99251.44;110334;1274;22450;-79
2023/08/07 11:37:17;;;;;;;3.80;0.70;;;;;;;19.25;70.36;99255.66;110309;1277;22446;-80
2023/08/07 11:39:49;;;;;;;2.90;0.60;;;;;;;19.22;70.85;99255.91;110300;1269;22160;-79